createdAt,value
2019-04-06T00:03:09.522Z,64.35
2019-04-06T00:05:36.314Z,66.47
2019-04-06T00:08:03.093Z,66.15
2019-04-06T00:10:29.866Z,65.62
2019-04-06T00:12:56.635Z,63.00
2019-04-06T00:15:23.330Z,66.28
2019-04-06T00:17:49.995Z,64.25
2019-04-06T00:20:16.794Z,63.42
2019-04-06T00:22:43.464Z,67.80
2019-04-06T00:25:10.272Z,66.67
2019-04-06T00:27:36.936Z,64.87
2019-04-06T00:30:04.384Z,67.17
2019-04-06T00:32:56.399Z,65.70
2019-04-06T00:35:23.184Z,66.17
2019-04-06T00:37:49.947Z,69.05
2019-04-06T00:40:17.096Z,66.62
2019-04-06T00:42:43.772Z,64.15
2019-04-06T00:45:10.676Z,64.37
2019-04-06T00:47:37.327Z,64.45
2019-04-06T00:50:04.931Z,69.03
2019-04-06T00:52:31.695Z,62.83
2019-04-06T00:54:58.392Z,67.40
2019-04-06T00:57:24.956Z,65.83
2019-04-06T00:59:51.671Z,66.72
2019-04-06T01:02:18.530Z,62.88
2019-04-06T01:05:05.067Z,63.63
2019-04-06T01:07:31.616Z,66.42
2019-04-06T01:09:58.304Z,66.22
2019-04-06T01:12:24.880Z,68.00
2019-04-06T01:14:51.681Z,68.00
2019-04-06T01:17:18.446Z,69.95
2019-04-06T01:19:45.233Z,73.57
2019-04-06T01:22:12.004Z,71.75
2019-04-06T01:24:38.767Z,75.95
2019-04-06T01:27:05.458Z,76.82
2019-04-06T01:29:32.226Z,74.67
2019-04-06T01:31:59.031Z,72.37
2019-04-06T01:34:25.599Z,77.47
2019-04-06T01:36:52.322Z,72.78
2019-04-06T01:39:18.962Z,74.32
2019-04-06T01:41:45.760Z,73.85
2019-04-06T01:44:12.604Z,73.80
2019-04-06T01:46:39.390Z,78.28
2019-04-06T01:49:06.083Z,75.87
2019-04-06T01:51:32.870Z,79.53
2019-04-06T01:54:00.036Z,80.72
2019-04-06T01:56:27.129Z,76.20
2019-04-06T01:58:53.690Z,75.92
2019-04-06T02:01:27.088Z,82.37
2019-04-06T02:03:54.235Z,80.32
2019-04-06T02:06:21.028Z,84.13
2019-04-06T02:08:47.704Z,86.25
2019-04-06T02:11:14.501Z,83.25
2019-04-06T02:13:41.176Z,81.42
2019-04-06T02:16:07.922Z,84.40
2019-04-06T02:18:34.598Z,83.70
2019-04-06T02:21:01.485Z,84.70
2019-04-06T02:23:28.051Z,84.28
2019-04-06T02:25:54.630Z,87.30
2019-04-06T02:28:21.245Z,83.80
2019-04-06T02:31:07.094Z,87.50
2019-04-06T02:33:45.039Z,84.95
2019-04-06T02:36:20.860Z,82.45
2019-04-06T02:38:53.301Z,86.60
2019-04-06T02:41:39.746Z,87.72
2019-04-06T02:44:06.424Z,82.53
2019-04-06T02:46:33.221Z,83.40
2019-04-06T02:49:00.299Z,84.62
2019-04-06T02:51:27.075Z,81.63
2019-04-06T02:53:53.872Z,81.20
2019-04-06T02:56:20.967Z,81.87
2019-04-06T02:58:47.667Z,79.10
2019-04-06T03:01:14.504Z,75.97
2019-04-06T03:03:41.676Z,79.15
2019-04-06T03:06:08.479Z,82.50
2019-04-06T03:08:35.259Z,79.45
2019-04-06T03:11:02.249Z,82.10
2019-04-06T03:13:29.081Z,81.40
2019-04-06T03:15:55.892Z,84.50
2019-04-06T03:18:22.612Z,88.03
2019-04-06T03:20:49.515Z,91.42
2019-04-06T03:23:16.528Z,93.97
2019-04-06T03:25:43.391Z,92.27
2019-04-06T03:28:10.076Z,97.75
2019-04-06T03:30:37.171Z,94.45
2019-04-06T03:33:04.186Z,90.45
2019-04-06T03:35:31.092Z,89.70
2019-04-06T03:37:58.741Z,92.72
2019-04-06T03:40:25.564Z,89.52
2019-04-06T03:42:52.215Z,93.17
2019-04-06T03:45:18.898Z,93.37
2019-04-06T03:47:45.622Z,88.80
2019-04-06T03:50:12.507Z,87.75
2019-04-06T03:52:39.316Z,90.57
2019-04-06T03:55:07.303Z,88.58
2019-04-06T03:57:34.202Z,90.22
2019-04-06T04:00:00.863Z,94.28
2019-04-06T04:02:27.471Z,93.40
2019-04-06T04:04:54.177Z,92.65
2019-04-06T04:07:21.014Z,92.78
2019-04-06T04:09:47.710Z,91.92
2019-04-06T04:12:14.413Z,92.02
2019-04-06T04:14:40.995Z,96.15
2019-04-06T04:17:07.711Z,93.92
2019-04-06T04:19:34.493Z,95.95
2019-04-06T04:22:01.181Z,97.02
2019-04-06T04:24:28.173Z,95.67
2019-04-06T04:26:54.894Z,96.12
2019-04-06T04:29:21.642Z,101.65
2019-04-06T04:31:48.426Z,100.67
2019-04-06T04:34:15.290Z,97.67
2019-04-06T04:36:42.065Z,92.35
2019-04-06T04:39:09.078Z,97.22
2019-04-06T04:41:39.022Z,100.33
2019-04-06T04:44:04.589Z,94.00
2019-04-06T04:46:31.264Z,95.32
2019-04-06T04:48:57.776Z,93.12
2019-04-06T04:51:24.536Z,92.25
2019-04-06T04:53:51.233Z,90.50
2019-04-06T04:56:18.051Z,91.00
2019-04-06T04:58:44.601Z,86.50
2019-04-06T05:01:11.190Z,85.00
2019-04-06T05:03:37.994Z,88.27
2019-04-06T05:06:04.779Z,83.40
2019-04-06T05:08:31.474Z,84.37
2019-04-06T05:10:58.154Z,82.50
2019-04-06T05:13:24.973Z,81.45
2019-04-06T05:16:20.451Z,80.83
2019-04-06T05:18:47.148Z,81.20
2019-04-06T05:21:13.938Z,81.05
2019-04-06T05:23:40.868Z,76.55
2019-04-06T05:26:08.042Z,79.15
2019-04-06T05:28:34.845Z,77.32
2019-04-06T05:31:01.620Z,75.42
2019-04-06T05:33:28.815Z,71.97
2019-04-06T05:35:56.040Z,72.40
2019-04-06T05:38:22.810Z,73.55
2019-04-06T05:40:49.981Z,70.92
2019-04-06T05:43:16.885Z,75.37
2019-04-06T05:45:44.000Z,74.17
2019-04-06T05:48:10.680Z,79.70
2019-04-06T05:50:37.468Z,72.40
2019-04-06T05:53:04.257Z,75.12
2019-04-06T05:55:31.467Z,74.70
2019-04-06T05:58:03.922Z,72.05
2019-04-06T06:00:27.052Z,69.92
2019-04-06T06:02:54.006Z,70.97
2019-04-06T06:05:20.997Z,70.80
2019-04-06T06:07:48.031Z,69.45
2019-04-06T06:10:14.901Z,69.50
2019-04-06T06:12:41.666Z,66.07
2019-04-06T06:15:08.676Z,66.42
2019-04-06T06:17:35.450Z,66.72
2019-04-06T06:20:02.589Z,68.50
2019-04-06T06:22:29.190Z,68.52
2019-04-06T06:24:55.778Z,67.53
2019-04-06T06:27:22.970Z,64.90
2019-04-06T06:29:50.361Z,65.67
2019-04-06T06:32:17.036Z,65.75
2019-04-06T06:34:43.834Z,65.15
2019-04-06T06:37:10.628Z,65.30
2019-04-06T06:39:37.436Z,62.62
2019-04-06T06:42:04.203Z,64.45
2019-04-06T06:44:30.905Z,67.42
2019-04-06T06:46:57.861Z,61.55
2019-04-06T06:49:24.867Z,61.80
2019-04-06T06:51:51.706Z,61.42
2019-04-06T06:54:18.450Z,60.05
2019-04-06T06:56:45.245Z,58.58
2019-04-06T06:59:13.031Z,58.63
2019-04-06T07:01:39.753Z,56.45
2019-04-06T07:04:06.452Z,55.00
2019-04-06T07:06:33.223Z,54.77
2019-04-06T07:08:59.947Z,55.33
2019-04-06T07:11:26.742Z,54.65
2019-04-06T07:13:53.580Z,54.08
2019-04-06T07:16:20.245Z,55.88
2019-04-06T07:18:47.302Z,54.27
2019-04-06T07:21:16.586Z,51.20
2019-04-06T07:23:42.647Z,50.48
2019-04-06T07:26:09.529Z,49.80
2019-04-06T07:28:38.438Z,47.10
2019-04-06T07:31:04.908Z,50.35
2019-04-06T07:33:31.484Z,51.68
2019-04-06T07:35:58.273Z,52.53
2019-04-06T07:38:25.203Z,51.92
2019-04-06T07:40:51.970Z,50.78
2019-04-06T07:43:18.741Z,49.98
2019-04-06T07:45:45.570Z,50.63
2019-04-06T07:48:12.251Z,48.20
2019-04-06T07:50:38.961Z,48.08
2019-04-06T07:53:05.736Z,50.60
2019-04-06T07:55:32.792Z,46.58
2019-04-06T07:57:59.542Z,46.70
2019-04-06T08:00:26.305Z,45.92
2019-04-06T08:02:52.980Z,44.48
2019-04-06T08:05:19.685Z,45.58
2019-04-06T08:07:46.626Z,45.33
2019-04-06T08:10:13.467Z,45.83
2019-04-06T08:12:40.144Z,46.35
2019-04-06T08:15:07.266Z,46.73
2019-04-06T08:17:34.224Z,46.58
2019-04-06T08:20:01.266Z,48.20
2019-04-06T08:22:27.848Z,47.20
2019-04-06T08:24:54.717Z,47.48
2019-04-06T08:27:21.537Z,46.02
2019-04-06T08:29:48.332Z,45.65
2019-04-06T08:32:15.008Z,46.50
2019-04-06T08:34:41.603Z,46.00
2019-04-06T08:37:08.386Z,46.35
2019-04-06T08:39:35.565Z,46.00
2019-04-06T08:42:03.066Z,47.33
2019-04-06T08:44:30.118Z,46.85
2019-04-06T08:46:56.936Z,46.18
2019-04-06T08:49:23.983Z,44.13
2019-04-06T08:51:50.687Z,46.45
2019-04-06T08:54:17.532Z,43.73
2019-04-06T08:56:44.194Z,44.27
2019-04-06T08:59:13.188Z,44.48
2019-04-06T09:01:39.588Z,45.50
2019-04-06T09:04:06.279Z,45.58
2019-04-06T09:06:32.983Z,42.90
2019-04-06T09:08:59.757Z,45.33
2019-04-06T09:11:26.568Z,45.67
2019-04-06T09:13:53.247Z,45.05
2019-04-06T09:16:19.912Z,46.28
2019-04-06T09:18:48.691Z,46.00
2019-04-06T09:21:22.971Z,46.05
2019-04-06T09:23:49.671Z,43.50
2019-04-06T09:26:16.592Z,45.03
2019-04-06T09:28:43.544Z,45.03
2019-04-06T09:31:10.241Z,43.65
2019-04-06T09:33:36.813Z,41.25
2019-04-06T09:36:04.031Z,43.38
2019-04-06T09:38:31.104Z,44.98
2019-04-06T09:41:05.648Z,42.53
2019-04-06T09:43:34.445Z,41.73
2019-04-06T09:46:17.522Z,44.40
2019-04-06T09:48:58.818Z,43.75
2019-04-06T09:51:45.243Z,42.98
2019-04-06T09:54:37.341Z,43.08
2019-04-06T09:57:23.787Z,43.48
2019-04-06T10:00:05.671Z,43.00
2019-04-06T10:02:55.616Z,44.03
2019-04-06T10:05:34.029Z,43.87
2019-04-06T10:08:17.868Z,44.60
2019-04-06T10:11:10.421Z,42.25
2019-04-06T10:13:51.447Z,42.33
2019-04-06T10:16:43.175Z,39.70
2019-04-06T10:19:26.194Z,37.78
2019-04-06T10:22:18.969Z,38.53
2019-04-06T10:25:07.714Z,38.10
2019-04-06T10:27:54.068Z,39.27
2019-04-06T10:30:39.402Z,36.17
2019-04-06T10:33:25.999Z,36.55
2019-04-06T10:36:15.397Z,37.25
2019-04-06T10:39:04.570Z,35.15
2019-04-06T10:41:54.077Z,33.42
2019-04-06T10:44:40.428Z,34.48
2019-04-06T10:47:18.318Z,34.65
2019-04-06T10:49:59.403Z,33.15
2019-04-06T10:52:48.702Z,33.53
2019-04-06T10:55:27.304Z,35.17
2019-04-06T10:58:05.312Z,33.75
2019-04-06T11:01:00.441Z,31.95
2019-04-06T11:03:32.894Z,31.02
2019-04-06T11:06:05.044Z,28.15
2019-04-06T11:08:47.576Z,28.15
2019-04-06T11:11:32.375Z,29.23
2019-04-06T11:14:10.321Z,27.85
2019-04-06T11:16:53.766Z,29.92
2019-04-06T11:19:39.652Z,27.37
2019-04-06T11:22:23.717Z,25.20
2019-04-06T11:25:08.567Z,25.12
2019-04-06T11:27:44.619Z,22.65
2019-04-06T11:30:27.357Z,22.67
2019-04-06T11:33:13.969Z,21.12
2019-04-06T11:36:00.252Z,19.95
2019-04-06T11:38:34.386Z,15.80
2019-04-06T11:41:16.806Z,14.45
2019-04-06T11:44:08.912Z,14.47
2019-04-06T11:47:13.244Z,12.90
2019-04-06T11:50:03.835Z,14.13
2019-04-06T11:52:51.591Z,15.25
2019-04-06T11:55:36.544Z,14.55
2019-04-06T11:58:17.228Z,15.45
2019-04-06T12:01:09.344Z,15.75
2019-04-06T12:03:55.789Z,15.60
2019-04-06T12:06:32.022Z,15.18
2019-04-06T12:09:18.358Z,13.43
2019-04-06T12:12:09.664Z,12.73
2019-04-06T12:14:54.602Z,14.13
2019-04-06T12:17:38.046Z,13.45
2019-04-06T12:20:16.462Z,13.38
2019-04-06T12:22:51.071Z,13.58
2019-04-06T12:25:37.009Z,13.78
2019-04-06T12:28:11.234Z,13.93
2019-04-06T12:30:49.610Z,13.85
2019-04-06T12:33:44.381Z,13.15
2019-04-06T12:36:36.466Z,13.68
2019-04-06T12:39:27.938Z,12.33
2019-04-06T12:42:12.651Z,13.22
2019-04-06T12:45:07.280Z,11.97
2019-04-06T12:47:52.685Z,12.65
2019-04-06T12:50:41.772Z,12.10
2019-04-06T12:53:28.216Z,10.83
2019-04-06T12:56:11.666Z,12.25
2019-04-06T12:59:04.142Z,12.30
2019-04-06T13:02:05.116Z,12.00
2019-04-06T13:04:41.710Z,11.22
2019-04-06T13:07:26.413Z,12.95
2019-04-06T13:10:00.758Z,12.23
2019-04-06T13:12:47.359Z,12.43
2019-04-06T13:15:25.945Z,11.48
2019-04-06T13:18:12.207Z,10.85
2019-04-06T13:21:10.683Z,11.85
2019-04-06T13:24:00.050Z,12.25
2019-04-06T13:27:01.293Z,10.40
2019-04-06T13:29:46.773Z,11.97
2019-04-06T13:32:35.825Z,11.30
2019-04-06T13:35:11.570Z,9.60
2019-04-06T13:37:53.768Z,9.58
2019-04-06T13:40:42.971Z,11.03
2019-04-06T13:43:35.847Z,11.23
2019-04-06T13:46:11.657Z,10.25
2019-04-06T13:49:00.827Z,10.85
2019-04-06T13:51:40.400Z,9.05
2019-04-06T13:54:26.892Z,10.40
2019-04-06T13:57:08.984Z,11.20
2019-04-06T13:59:43.822Z,10.00
2019-04-06T14:02:18.256Z,8.88
2019-04-06T14:05:02.982Z,9.48
2019-04-06T14:07:40.512Z,9.10
2019-04-06T14:10:26.393Z,9.60
2019-04-06T14:13:19.040Z,12.95
2019-04-06T14:15:55.634Z,12.40
2019-04-06T14:18:42.731Z,13.60
2019-04-06T14:21:35.414Z,18.67
2019-04-06T14:24:20.933Z,18.60
2019-04-06T14:27:00.337Z,17.30
2019-04-06T14:29:47.110Z,17.60
2019-04-06T14:32:29.104Z,18.98
2019-04-06T14:35:15.672Z,20.75
2019-04-06T14:37:53.913Z,19.25
2019-04-06T14:40:43.636Z,22.55
2019-04-06T14:43:45.120Z,21.68
2019-04-06T14:46:34.613Z,20.88
2019-04-06T14:49:29.918Z,21.33
2019-04-06T14:52:08.164Z,23.22
2019-04-06T14:54:47.215Z,25.27
2019-04-06T14:57:38.839Z,26.30
2019-04-06T15:00:20.323Z,24.90
2019-04-06T15:03:10.789Z,26.73
2019-04-06T15:05:47.802Z,25.43
2019-04-06T15:08:35.057Z,27.55
2019-04-06T15:11:21.709Z,28.35
2019-04-06T15:14:16.855Z,30.85
2019-04-06T15:16:58.085Z,31.90
2019-04-06T15:19:37.772Z,33.40
2019-04-06T15:22:24.276Z,34.48
2019-04-06T15:25:09.041Z,34.92
2019-04-06T15:27:45.372Z,38.25
2019-04-06T15:30:30.535Z,35.65
2019-04-06T15:33:08.862Z,39.80
2019-04-06T15:35:42.900Z,37.98
2019-04-06T15:38:27.668Z,40.40
2019-04-06T15:41:13.111Z,38.48
2019-04-06T15:43:48.063Z,39.85
2019-04-06T15:46:23.229Z,38.20
2019-04-06T15:49:09.532Z,39.88
2019-04-06T15:52:15.341Z,38.20
2019-04-06T15:54:48.265Z,37.93
2019-04-06T15:57:26.075Z,36.53
2019-04-06T16:00:11.755Z,36.88
2019-04-06T16:03:00.439Z,34.15
2019-04-06T16:05:45.788Z,35.28
2019-04-06T16:08:31.048Z,35.78
2019-04-06T16:11:16.249Z,34.15
2019-04-06T16:13:52.040Z,35.60
2019-04-06T16:16:44.027Z,33.55
2019-04-06T16:19:20.467Z,34.48
2019-04-06T16:21:55.007Z,34.75
2019-04-06T16:24:47.398Z,33.40
2019-04-06T16:27:32.639Z,31.55
2019-04-06T16:30:21.905Z,33.53
2019-04-06T16:33:09.113Z,31.57
2019-04-06T16:36:01.959Z,29.87
2019-04-06T16:38:57.241Z,29.70
2019-04-06T16:41:46.585Z,29.23
2019-04-06T16:44:26.835Z,30.43
2019-04-06T16:49:57.075Z,27.98
2019-04-06T16:52:49.196Z,28.35
2019-04-06T16:55:29.391Z,26.85
2019-04-06T16:58:15.907Z,28.05
2019-04-06T17:00:52.435Z,27.65
2019-04-06T17:03:30.741Z,28.57
2019-04-06T17:06:18.695Z,28.38
2019-04-06T17:08:55.286Z,28.00
2019-04-06T17:11:40.018Z,29.07
2019-04-06T17:14:14.766Z,29.37
2019-04-06T17:16:57.267Z,29.10
2019-04-06T17:19:46.273Z,29.35
2019-04-06T17:22:22.545Z,28.60
2019-04-06T17:25:09.222Z,30.60
2019-04-06T17:27:46.707Z,29.48
2019-04-06T17:30:18.942Z,30.60
2019-04-06T17:32:59.375Z,29.35
2019-04-06T17:35:45.788Z,29.80
2019-04-06T17:38:34.796Z,30.48
2019-04-06T17:41:21.729Z,28.02
2019-04-06T17:44:09.136Z,29.80
2019-04-06T17:46:51.670Z,30.82
2019-04-06T17:49:30.324Z,30.12
2019-04-06T17:52:17.681Z,29.57
2019-04-06T17:55:11.294Z,30.95
2019-04-06T17:57:56.223Z,30.15
2019-04-06T18:00:50.699Z,29.63
2019-04-06T18:03:39.755Z,30.02
2019-04-06T18:06:30.147Z,29.52
2019-04-06T18:09:07.718Z,29.57
2019-04-06T18:11:52.941Z,29.60
2019-04-06T18:14:19.961Z,30.05
2019-04-06T18:16:46.959Z,31.27
2019-04-06T18:19:13.731Z,30.12
2019-04-06T18:21:40.529Z,31.15
2019-04-06T18:24:07.297Z,31.57
2019-04-06T18:26:33.999Z,32.03
2019-04-06T18:29:00.791Z,31.20
2019-04-06T18:31:50.188Z,29.40
2019-04-06T18:34:17.352Z,30.17
2019-04-06T18:36:57.024Z,28.98
2019-04-06T18:39:24.206Z,30.52
2019-04-06T18:41:51.095Z,30.75
2019-04-06T18:44:17.859Z,29.75
2019-04-06T18:46:45.656Z,28.77
2019-04-06T18:49:12.530Z,29.18
2019-04-06T18:51:39.141Z,30.45
2019-04-06T18:54:08.318Z,32.88
2019-04-06T18:56:34.649Z,29.72
2019-04-06T18:59:01.421Z,29.98
2019-04-06T19:01:28.226Z,29.72
2019-04-06T19:03:55.561Z,29.27
2019-04-06T19:06:22.795Z,28.17
2019-04-06T19:08:49.467Z,28.90
2019-04-06T19:11:16.394Z,27.62
2019-04-06T19:13:43.029Z,28.98
2019-04-06T19:16:09.799Z,28.07
2019-04-06T19:18:36.500Z,30.12
2019-04-06T19:21:03.280Z,27.27
2019-04-06T19:23:30.074Z,28.12
2019-04-06T19:25:56.840Z,28.60
2019-04-06T19:28:23.531Z,27.87
2019-04-06T19:30:50.206Z,27.42
2019-04-06T19:33:23.286Z,27.70
2019-04-06T19:35:46.163Z,36.23
2019-04-06T19:38:13.122Z,51.65
2019-04-06T19:40:39.880Z,48.55
2019-04-06T19:43:06.735Z,37.78
2019-04-06T19:45:33.750Z,33.25
2019-04-06T19:48:00.356Z,32.80
2019-04-06T19:50:27.198Z,32.25
2019-04-06T19:52:53.989Z,30.05
2019-04-06T19:55:21.257Z,28.55
2019-04-06T19:57:48.278Z,28.73
2019-04-06T20:00:15.446Z,26.85
2019-04-06T20:02:42.318Z,28.67
2019-04-06T20:05:09.640Z,32.73
2019-04-06T20:07:36.561Z,39.50
2019-04-06T20:10:04.321Z,49.05
2019-04-06T20:12:31.104Z,37.23
2019-04-06T20:14:58.299Z,35.35
2019-04-06T20:17:25.125Z,35.15
2019-04-06T20:19:52.029Z,37.55
2019-04-06T20:22:19.154Z,36.93
2019-04-06T20:24:46.051Z,39.00
2019-04-06T20:27:12.830Z,38.38
2019-04-06T20:29:39.777Z,39.50
2019-04-06T20:32:06.784Z,39.70
2019-04-06T20:34:33.565Z,46.42
2019-04-06T20:37:00.368Z,45.92
2019-04-06T20:39:27.165Z,38.75
2019-04-06T20:41:54.112Z,60.90
2019-04-06T20:44:21.099Z,42.43
2019-04-06T20:46:47.879Z,42.58
2019-04-06T20:49:14.558Z,40.98
2019-04-06T20:51:41.330Z,43.98
2019-04-06T20:54:09.051Z,53.87
2019-04-06T20:56:36.191Z,48.90
2019-04-06T20:59:03.087Z,44.18
2019-04-06T21:01:30.149Z,43.52
2019-04-06T21:04:01.068Z,41.15
2019-04-06T21:06:25.308Z,44.67
2019-04-06T21:08:52.522Z,46.83
2019-04-06T21:11:19.565Z,55.35
2019-04-06T21:13:46.365Z,43.95
2019-04-06T21:16:13.411Z,56.23
2019-04-06T21:18:40.053Z,49.63
2019-04-06T21:21:06.862Z,44.33
2019-04-06T21:23:33.860Z,48.83
2019-04-06T21:26:00.667Z,36.77
2019-04-06T21:28:27.427Z,38.60
2019-04-06T21:30:54.341Z,44.67
2019-04-06T21:33:20.883Z,49.13
2019-04-06T21:35:47.681Z,51.35
2019-04-06T21:38:14.356Z,41.05
2019-04-06T21:40:41.151Z,37.67
2019-04-06T21:43:07.927Z,36.38
2019-04-06T21:45:34.634Z,32.58
2019-04-06T21:48:01.742Z,33.48
2019-04-06T21:50:28.713Z,32.93
2019-04-06T21:52:55.894Z,34.73
2019-04-06T21:55:22.936Z,36.53
2019-04-06T21:57:49.573Z,34.83
2019-04-06T22:00:24.188Z,34.58
2019-04-06T22:02:51.388Z,34.95
2019-04-06T22:05:18.681Z,37.00
2019-04-06T22:07:50.195Z,41.10
2019-04-06T22:10:14.146Z,43.25
2019-04-06T22:12:41.483Z,43.95
2019-04-06T22:17:56.684Z,43.95
2019-04-06T22:20:24.077Z,42.35
2019-04-06T22:22:51.042Z,50.38
2019-04-06T22:25:17.757Z,41.23
2019-04-06T22:27:44.934Z,45.00
2019-04-06T22:30:12.261Z,46.48
2019-04-06T22:32:39.329Z,41.90
2019-04-06T22:35:07.275Z,39.33
2019-04-06T22:37:34.313Z,34.67
2019-04-06T22:40:00.597Z,35.78
2019-04-06T22:42:27.363Z,35.68
2019-04-06T22:44:54.467Z,33.92
2019-04-06T22:47:21.296Z,36.05
2019-04-06T22:49:48.196Z,34.85
2019-04-06T22:52:14.873Z,34.53
2019-04-06T22:54:41.666Z,36.05
2019-04-06T22:57:08.231Z,33.65
2019-04-06T22:59:34.810Z,32.10
2019-04-06T23:02:01.528Z,35.48
2019-04-06T23:04:57.602Z,33.80
2019-04-06T23:07:25.331Z,37.00
2019-04-06T23:09:52.392Z,36.03
2019-04-06T23:12:18.974Z,35.65
2019-04-06T23:14:45.759Z,34.50
2019-04-06T23:17:12.731Z,34.13
2019-04-06T23:19:39.432Z,34.25
2019-04-06T23:22:06.205Z,34.73
2019-04-06T23:24:33.013Z,34.05
2019-04-06T23:26:59.758Z,35.83
2019-04-06T23:29:26.892Z,34.35
2019-04-06T23:31:54.376Z,33.75
2019-04-06T23:34:21.262Z,34.67
2019-04-06T23:36:48.046Z,35.85
2019-04-06T23:39:14.854Z,40.70
2019-04-06T23:41:41.622Z,38.02
2019-04-06T23:44:08.805Z,37.33
2019-04-06T23:46:35.716Z,36.15
2019-04-06T23:49:02.742Z,35.20
2019-04-06T23:51:30.417Z,36.53
2019-04-06T23:53:57.440Z,36.45
2019-04-06T23:56:24.234Z,36.33
2019-04-06T23:58:51.025Z,34.95
